sensor_id;sensor_type;location;lat;lon;timestamp;pressure;altitude;pressure_sealevel;temperature;humidity
21300;BME280;10809;49.476;11.016;2023-02-04T00:01:58;99228.50;;;5.12;71.82
21300;BME280;10809;49.476;11.016;2023-02-04T00:04:29;99229.34;;;5.13;71.87
21300;BME280;10809;49.476;11.016;2023-02-04T00:07:00;99226.72;;;5.13;71.96
21300;BME280;10809;49.476;11.016;2023-02-04T00:09:31;99235.47;;;5.15;72.06
21300;BME280;10809;49.476;11.016;2023-02-04T00:12:01;99238.06;;;5.16;71.79
21300;BME280;10809;49.476;11.016;2023-02-04T00:14:32;99241.56;;;5.17;71.76
21300;BME280;10809;49.476;11.016;2023-02-04T00:17:02;99240.66;;;5.18;71.58
21300;BME280;10809;49.476;11.016;2023-02-04T00:19:33;99236.31;;;5.17;71.42
21300;BME280;10809;49.476;11.016;2023-02-04T00:22:03;99239.78;;;5.17;71.83
21300;BME280;10809;49.476;11.016;2023-02-04T00:24:35;99234.53;;;5.17;71.36
21300;BME280;10809;49.476;11.016;2023-02-04T00:27:06;99235.41;;;5.18;71.50
21300;BME280;10809;49.476;11.016;2023-02-04T00:29:36;99238.91;;;5.18;71.73
21300;BME280;10809;49.476;11.016;2023-02-04T00:32:07;99250.25;;;5.19;71.28
21300;BME280;10809;49.476;11.016;2023-02-04T00:34:38;99257.28;;;5.18;71.49
21300;BME280;10809;49.476;11.016;2023-02-04T00:37:08;99250.25;;;5.19;71.47
21300;BME280;10809;49.476;11.016;2023-02-04T00:39:39;99247.63;;;5.19;71.48
21300;BME280;10809;49.476;11.016;2023-02-04T00:42:09;99258.13;;;5.19;71.56
21300;BME280;10809;49.476;11.016;2023-02-04T00:44:40;99258.13;;;5.19;71.44
21300;BME280;10809;49.476;11.016;2023-02-04T00:47:10;99260.75;;;5.19;71.12
21300;BME280;10809;49.476;11.016;2023-02-04T00:49:41;99258.13;;;5.19;71.13
21300;BME280;10809;49.476;11.016;2023-02-04T00:52:11;99261.66;;;5.18;71.41
21300;BME280;10809;49.476;11.016;2023-02-04T00:54:42;99263.38;;;5.19;71.10
21300;BME280;10809;49.476;11.016;2023-02-04T00:57:12;99260.78;;;5.17;71.18
21300;BME280;10809;49.476;11.016;2023-02-04T00:59:43;99259.03;;;5.18;70.86
21300;BME280;10809;49.476;11.016;2023-02-04T01:02:14;99262.56;;;5.17;70.90
21300;BME280;10809;49.476;11.016;2023-02-04T01:04:45;99262.56;;;5.17;70.90
21300;BME280;10809;49.476;11.016;2023-02-04T01:07:16;99265.22;;;5.15;70.87
21300;BME280;10809;49.476;11.016;2023-02-04T01:09:47;99270.47;;;5.15;70.81
21300;BME280;10809;49.476;11.016;2023-02-04T01:12:17;99264.34;;;5.13;70.68
21300;BME280;10809;49.476;11.016;2023-02-04T01:14:48;99274.88;;;5.13;70.82
21300;BME280;10809;49.476;11.016;2023-02-04T01:17:18;99276.59;;;5.13;70.84
21300;BME280;10809;49.476;11.016;2023-02-04T01:19:50;99281.88;;;5.11;70.59
21300;BME280;10809;49.476;11.016;2023-02-04T01:22:21;99275.78;;;5.11;70.62
21300;BME280;10809;49.476;11.016;2023-02-04T01:24:51;99286.28;;;5.11;70.69
21300;BME280;10809;49.476;11.016;2023-02-04T01:27:40;99289.78;;;5.10;70.28
21300;BME280;10809;49.476;11.016;2023-02-04T01:30:13;99294.19;;;5.09;70.48
21300;BME280;10809;49.476;11.016;2023-02-04T01:32:44;99302.09;;;5.08;70.07
21300;BME280;10809;49.476;11.016;2023-02-04T01:35:14;99306.47;;;5.07;70.33
21300;BME280;10809;49.476;11.016;2023-02-04T01:37:45;99310.00;;;5.06;70.09
21300;BME280;10809;49.476;11.016;2023-02-04T01:40:18;99309.13;;;5.06;70.27
21300;BME280;10809;49.476;11.016;2023-02-04T01:42:49;99312.69;;;5.03;69.91
21300;BME280;10809;49.476;11.016;2023-02-04T01:45:19;99306.56;;;5.03;70.43
21300;BME280;10809;49.476;11.016;2023-02-04T01:47:50;99308.31;;;5.02;70.00
21300;BME280;10809;49.476;11.016;2023-02-04T01:50:21;99321.41;;;5.02;69.75
21300;BME280;10809;49.476;11.016;2023-02-04T01:52:52;99315.34;;;5.00;70.33
21300;BME280;10809;49.476;11.016;2023-02-04T01:55:25;99310.09;;;5.00;69.68
21300;BME280;10809;49.476;11.016;2023-02-04T01:57:56;99319.75;;;4.98;70.19
21300;BME280;10809;49.476;11.016;2023-02-04T02:00:30;99326.75;;;4.98;69.69
21300;BME280;10809;49.476;11.016;2023-02-04T02:03:01;99325.03;;;4.97;69.57
21300;BME280;10809;49.476;11.016;2023-02-04T02:05:39;99325.06;;;4.95;69.39
21300;BME280;10809;49.476;11.016;2023-02-04T02:08:12;99325.09;;;4.94;68.81
21300;BME280;10809;49.476;11.016;2023-02-04T02:10:44;99318.94;;;4.93;69.05
21300;BME280;10809;49.476;11.016;2023-02-04T02:13:17;99322.47;;;4.92;68.63
21300;BME280;10809;49.476;11.016;2023-02-04T02:15:48;99329.50;;;4.90;68.80
21300;BME280;10809;49.476;11.016;2023-02-04T02:18:19;99327.75;;;4.91;68.99
21300;BME280;10809;49.476;11.016;2023-02-04T02:20:50;99326.06;;;4.88;68.81
21300;BME280;10809;49.476;11.016;2023-02-04T02:26:02;99333.97;;;4.87;69.07
21300;BME280;10809;49.476;11.016;2023-02-04T02:28:33;99344.44;;;4.87;69.04
21300;BME280;10809;49.476;11.016;2023-02-04T02:31:03;99344.44;;;4.87;68.73
21300;BME280;10809;49.476;11.016;2023-02-04T02:33:34;99335.72;;;4.85;69.25
21300;BME280;10809;49.476;11.016;2023-02-04T02:36:05;99341.88;;;4.84;69.06
21300;BME280;10809;49.476;11.016;2023-02-04T02:38:36;99341.91;;;4.82;69.28
21300;BME280;10809;49.476;11.016;2023-02-04T02:41:07;99348.94;;;4.80;68.80
21300;BME280;10809;49.476;11.016;2023-02-04T02:43:40;99342.81;;;4.78;69.02
21300;BME280;10809;49.476;11.016;2023-02-04T02:46:11;99348.09;;;4.77;68.97
21300;BME280;10809;49.476;11.016;2023-02-04T02:48:42;99349.03;;;4.74;68.98
21300;BME280;10809;49.476;11.016;2023-02-04T02:51:12;99356.91;;;4.73;69.04
21300;BME280;10809;49.476;11.016;2023-02-04T02:53:44;99356.94;;;4.71;68.87
21300;BME280;10809;49.476;11.016;2023-02-04T02:56:17;99371.81;;;4.69;68.69
21300;BME280;10809;49.476;11.016;2023-02-04T02:58:48;99378.81;;;4.69;68.53
21300;BME280;10809;49.476;11.016;2023-02-04T03:01:20;99372.75;;;4.67;68.54
21300;BME280;10809;49.476;11.016;2023-02-04T03:03:51;99373.63;;;4.66;68.31
21300;BME280;10809;49.476;11.016;2023-02-04T03:06:24;99388.53;;;4.64;68.06
21300;BME280;10809;49.476;11.016;2023-02-04T03:08:56;99387.69;;;4.62;68.20
21300;BME280;10809;49.476;11.016;2023-02-04T03:11:27;99386.81;;;4.60;67.97
21300;BME280;10809;49.476;11.016;2023-02-04T03:13:59;99392.97;;;4.59;68.15
21300;BME280;10809;49.476;11.016;2023-02-04T03:16:33;99400.00;;;4.55;68.14
21300;BME280;10809;49.476;11.016;2023-02-04T03:19:06;99401.81;;;4.53;68.17
21300;BME280;10809;49.476;11.016;2023-02-04T03:21:38;99407.94;;;4.51;67.78
21300;BME280;10809;49.476;11.016;2023-02-04T03:24:08;99417.59;;;4.49;67.92
21300;BME280;10809;49.476;11.016;2023-02-04T03:26:40;99419.38;;;4.45;67.82
21300;BME280;10809;49.476;11.016;2023-02-04T03:29:11;99420.31;;;4.43;67.95
21300;BME280;10809;49.476;11.016;2023-02-04T03:31:42;99434.31;;;4.40;68.05
21300;BME280;10809;49.476;11.016;2023-02-04T03:34:12;99445.69;;;4.39;67.95
21300;BME280;10809;49.476;11.016;2023-02-04T03:36:43;99444.81;;;4.37;67.79
21300;BME280;10809;49.476;11.016;2023-02-04T03:39:13;99436.13;;;4.37;67.92
21300;BME280;10809;49.476;11.016;2023-02-04T03:41:44;99446.59;;;4.37;68.27
21300;BME280;10809;49.476;11.016;2023-02-04T03:44:14;99465.81;;;4.37;68.20
21300;BME280;10809;49.476;11.016;2023-02-04T03:46:45;99462.34;;;4.37;68.20
21300;BME280;10809;49.476;11.016;2023-02-04T03:49:15;99475.44;;;4.37;68.50
21300;BME280;10809;49.476;11.016;2023-02-04T03:51:46;99472.81;;;4.37;68.03
21300;BME280;10809;49.476;11.016;2023-02-04T03:54:17;99471.94;;;4.36;68.19
21300;BME280;10809;49.476;11.016;2023-02-04T03:56:50;99468.44;;;4.36;68.18
21300;BME280;10809;49.476;11.016;2023-02-04T03:59:21;99485.06;;;4.35;68.00
21300;BME280;10809;49.476;11.016;2023-02-04T04:01:51;99494.69;;;4.32;68.11
21300;BME280;10809;49.476;11.016;2023-02-04T04:04:22;99490.34;;;4.32;68.54
21300;BME280;10809;49.476;11.016;2023-02-04T04:06:53;99488.59;;;4.32;68.29
21300;BME280;10809;49.476;11.016;2023-02-04T04:09:23;99499.97;;;4.31;68.25
21300;BME280;10809;49.476;11.016;2023-02-04T04:11:54;99489.47;;;4.31;68.36
21300;BME280;10809;49.476;11.016;2023-02-04T04:14:25;99492.97;;;4.32;68.39
21300;BME280;10809;49.476;11.016;2023-02-04T04:16:55;99498.22;;;4.32;68.56
21300;BME280;10809;49.476;11.016;2023-02-04T04:19:25;99500.84;;;4.32;68.56
21300;BME280;10809;49.476;11.016;2023-02-04T04:21:56;99506.13;;;4.28;68.40
21300;BME280;10809;49.476;11.016;2023-02-04T04:24:26;99506.13;;;4.27;68.25
21300;BME280;10809;49.476;11.016;2023-02-04T04:26:57;99506.16;;;4.25;68.50
21300;BME280;10809;49.476;11.016;2023-02-04T04:29:27;99509.72;;;4.21;68.43
21300;BME280;10809;49.476;11.016;2023-02-04T04:31:58;99516.72;;;4.19;68.46
21300;BME280;10809;49.476;11.016;2023-02-04T04:34:28;99522.81;;;4.17;68.26
21300;BME280;10809;49.476;11.016;2023-02-04T04:36:58;99538.56;;;4.15;68.90
21300;BME280;10809;49.476;11.016;2023-02-04T04:39:29;99542.97;;;4.13;68.78
21300;BME280;10809;49.476;11.016;2023-02-04T04:41:59;99541.22;;;4.12;68.60
21300;BME280;10809;49.476;11.016;2023-02-04T04:44:30;99550.84;;;4.12;68.87
21300;BME280;10809;49.476;11.016;2023-02-04T04:47:00;99554.31;;;4.12;69.17
21300;BME280;10809;49.476;11.016;2023-02-04T04:49:32;99567.44;;;4.12;68.89
21300;BME280;10809;49.476;11.016;2023-02-04T04:52:02;99564.81;;;4.12;68.59
21300;BME280;10809;49.476;11.016;2023-02-04T04:54:33;99562.19;;;4.12;69.11
21300;BME280;10809;49.476;11.016;2023-02-04T04:57:04;99569.19;;;4.13;68.57
21300;BME280;10809;49.476;11.016;2023-02-04T04:59:34;99574.44;;;4.13;68.76
21300;BME280;10809;49.476;11.016;2023-02-04T05:02:04;99584.91;;;4.13;68.84
21300;BME280;10809;49.476;11.016;2023-02-04T05:04:35;99604.09;;;4.14;68.96
21300;BME280;10809;49.476;11.016;2023-02-04T05:07:05;99599.75;;;4.13;68.88
21300;BME280;10809;49.476;11.016;2023-02-04T05:09:36;99600.63;;;4.13;68.81
21300;BME280;10809;49.476;11.016;2023-02-04T05:12:06;99599.75;;;4.13;69.01
21300;BME280;10809;49.476;11.016;2023-02-04T05:14:37;99606.75;;;4.12;68.89
21300;BME280;10809;49.476;11.016;2023-02-04T05:17:07;99615.50;;;4.11;68.80
21300;BME280;10809;49.476;11.016;2023-02-04T05:19:37;99608.53;;;4.12;68.76
21300;BME280;10809;49.476;11.016;2023-02-04T05:22:08;99619.84;;;4.12;69.19
21300;BME280;10809;49.476;11.016;2023-02-04T05:24:38;99620.72;;;4.13;68.76
21300;BME280;10809;49.476;11.016;2023-02-04T05:27:09;99611.97;;;4.12;68.64
21300;BME280;10809;49.476;11.016;2023-02-04T05:29:39;99619.84;;;4.12;69.11
21300;BME280;10809;49.476;11.016;2023-02-04T05:32:10;99618.13;;;4.11;68.67
21300;BME280;10809;49.476;11.016;2023-02-04T05:34:40;99623.34;;;4.13;69.06
21300;BME280;10809;49.476;11.016;2023-02-04T05:37:11;99629.50;;;4.12;69.33
21300;BME280;10809;49.476;11.016;2023-02-04T05:39:41;99621.63;;;4.10;69.29
21300;BME280;10809;49.476;11.016;2023-02-04T05:42:12;99640.81;;;4.12;69.31
21300;BME280;10809;49.476;11.016;2023-02-04T05:44:42;99642.59;;;4.12;68.75
21300;BME280;10809;49.476;11.016;2023-02-04T05:47:13;99641.72;;;4.10;69.41
21300;BME280;10809;49.476;11.016;2023-02-04T05:49:44;99646.97;;;4.10;69.24
21300;BME280;10809;49.476;11.016;2023-02-04T05:52:14;99651.31;;;4.09;69.37
21300;BME280;10809;49.476;11.016;2023-02-04T05:54:45;99662.69;;;4.08;69.00
21300;BME280;10809;49.476;11.016;2023-02-04T05:57:16;99673.19;;;4.07;69.32
21300;BME280;10809;49.476;11.016;2023-02-04T05:59:46;99674.09;;;4.04;69.23
21300;BME280;10809;49.476;11.016;2023-02-04T06:02:17;99681.09;;;4.04;69.32
21300;BME280;10809;49.476;11.016;2023-02-04T06:04:47;99679.38;;;4.01;69.28
21300;BME280;10809;49.476;11.016;2023-02-04T06:07:18;99689.88;;;3.98;69.28
21300;BME280;10809;49.476;11.016;2023-02-04T06:09:48;99690.75;;;3.96;69.14
21300;BME280;10809;49.476;11.016;2023-02-04T06:12:19;99703.00;;;3.94;69.24
21300;BME280;10809;49.476;11.016;2023-02-04T06:14:49;99703.88;;;3.91;69.08
21300;BME280;10809;49.476;11.016;2023-02-04T06:17:19;99718.75;;;3.88;68.92
21300;BME280;10809;49.476;11.016;2023-02-04T06:19:50;99718.78;;;3.85;69.37
21300;BME280;10809;49.476;11.016;2023-02-04T06:22:21;99724.91;;;3.82;69.11
21300;BME280;10809;49.476;11.016;2023-02-04T06:24:53;99723.19;;;3.80;69.33
21300;BME280;10809;49.476;11.016;2023-02-04T06:27:24;99734.53;;;3.79;68.96
21300;BME280;10809;49.476;11.016;2023-02-04T06:29:54;99732.78;;;3.76;69.05
21300;BME280;10809;49.476;11.016;2023-02-04T06:32:26;99737.19;;;3.74;69.60
21300;BME280;10809;49.476;11.016;2023-02-04T06:34:56;99758.16;;;3.74;69.05
21300;BME280;10809;49.476;11.016;2023-02-04T06:37:27;99752.03;;;3.72;69.38
21300;BME280;10809;49.476;11.016;2023-02-04T06:39:57;99766.03;;;3.70;68.96
21300;BME280;10809;49.476;11.016;2023-02-04T06:42:28;99780.00;;;3.64;67.65
21300;BME280;10809;49.476;11.016;2023-02-04T06:44:58;99783.56;;;3.53;67.56
21300;BME280;10809;49.476;11.016;2023-02-04T06:47:29;99792.31;;;3.37;67.73
21300;BME280;10809;49.476;11.016;2023-02-04T06:49:59;99799.38;;;3.20;67.80
21300;BME280;10809;49.476;11.016;2023-02-04T06:52:30;99810.72;;;3.04;68.13
21300;BME280;10809;49.476;11.016;2023-02-04T06:55:00;99818.59;;;2.90;67.90
21300;BME280;10809;49.476;11.016;2023-02-04T06:57:31;99816.84;;;2.79;68.68
21300;BME280;10809;49.476;11.016;2023-02-04T07:00:01;99822.91;;;2.70;68.99
21300;BME280;10809;49.476;11.016;2023-02-04T07:02:31;99831.66;;;2.65;68.89
21300;BME280;10809;49.476;11.016;2023-02-04T07:05:02;99831.66;;;2.60;69.48
21300;BME280;10809;49.476;11.016;2023-02-04T07:07:33;99836.00;;;2.55;68.79
21300;BME280;10809;49.476;11.016;2023-02-04T07:10:04;99832.50;;;2.51;69.27
21300;BME280;10809;49.476;11.016;2023-02-04T07:12:35;99836.88;;;2.49;69.69
21300;BME280;10809;49.476;11.016;2023-02-04T07:15:06;99835.09;;;2.50;69.80
21300;BME280;10809;49.476;11.016;2023-02-04T07:17:36;99840.34;;;2.51;69.75
21300;BME280;10809;49.476;11.016;2023-02-04T07:20:08;99848.19;;;2.51;69.91
21300;BME280;10809;49.476;11.016;2023-02-04T07:22:38;99857.78;;;2.51;70.03
21300;BME280;10809;49.476;11.016;2023-02-04T07:25:09;99860.41;;;2.53;70.33
21300;BME280;10809;49.476;11.016;2023-02-04T07:27:40;99861.25;;;2.53;70.42
21300;BME280;10809;49.476;11.016;2023-02-04T07:30:11;99862.13;;;2.55;70.52
21300;BME280;10809;49.476;11.016;2023-02-04T07:32:42;99863.88;;;2.57;69.92
21300;BME280;10809;49.476;11.016;2023-02-04T07:35:12;99870.88;;;2.60;70.00
21300;BME280;10809;49.476;11.016;2023-02-04T07:37:43;99876.09;;;2.62;69.91
21300;BME280;10809;49.476;11.016;2023-02-04T07:40:13;99881.31;;;2.63;69.58
21300;BME280;10809;49.476;11.016;2023-02-04T07:42:44;99884.81;;;2.65;70.05
21300;BME280;10809;49.476;11.016;2023-02-04T07:45:20;99898.75;;;2.67;70.44
21300;BME280;10809;49.476;11.016;2023-02-04T07:47:50;99899.63;;;2.69;70.34
21300;BME280;10809;49.476;11.016;2023-02-04T07:50:21;99913.59;;;2.74;70.45
21300;BME280;10809;49.476;11.016;2023-02-04T07:52:51;99912.72;;;2.77;70.76
21300;BME280;10809;49.476;11.016;2023-02-04T07:55:22;99918.88;;;2.82;70.87
21300;BME280;10809;49.476;11.016;2023-02-04T07:57:52;99914.50;;;2.87;70.34
21300;BME280;10809;49.476;11.016;2023-02-04T08:00:23;99916.25;;;2.91;70.33
21300;BME280;10809;49.476;11.016;2023-02-04T08:02:53;99911.03;;;2.95;69.91
21300;BME280;10809;49.476;11.016;2023-02-04T08:05:24;99913.66;;;2.95;69.67
21300;BME280;10809;49.476;11.016;2023-02-04T08:07:55;99910.16;;;2.96;70.01
21300;BME280;10809;49.476;11.016;2023-02-04T08:10:25;99923.22;;;2.95;70.05
21300;BME280;10809;49.476;11.016;2023-02-04T08:12:55;99937.19;;;2.97;69.84
21300;BME280;10809;49.476;11.016;2023-02-04T08:15:26;99945.88;;;2.99;69.81
21300;BME280;10809;49.476;11.016;2023-02-04T08:17:56;99948.50;;;3.00;70.12
21300;BME280;10809;49.476;11.016;2023-02-04T08:20:27;99947.66;;;3.03;69.85
21300;BME280;10809;49.476;11.016;2023-02-04T08:22:58;99952.91;;;3.06;70.09
21300;BME280;10809;49.476;11.016;2023-02-04T08:25:28;99952.00;;;3.08;70.10
21300;BME280;10809;49.476;11.016;2023-02-04T08:27:59;99950.28;;;3.15;70.36
21300;BME280;10809;49.476;11.016;2023-02-04T08:30:29;99965.09;;;3.20;70.09
21300;BME280;10809;49.476;11.016;2023-02-04T08:32:59;99973.84;;;3.24;70.67
21300;BME280;10809;49.476;11.016;2023-02-04T08:35:30;99966.88;;;3.30;70.23
21300;BME280;10809;49.476;11.016;2023-02-04T08:38:00;99973.84;;;3.36;70.29
21300;BME280;10809;49.476;11.016;2023-02-04T08:40:31;99979.06;;;3.42;70.11
21300;BME280;10809;49.476;11.016;2023-02-04T08:43:01;99983.41;;;3.47;70.51
21300;BME280;10809;49.476;11.016;2023-02-04T08:45:32;99990.41;;;3.51;70.14
21300;BME280;10809;49.476;11.016;2023-02-04T08:48:03;99979.94;;;3.54;69.85
21300;BME280;10809;49.476;11.016;2023-02-04T08:50:34;99993.88;;;3.58;69.62
21300;BME280;10809;49.476;11.016;2023-02-04T08:53:04;99988.66;;;3.58;69.17
21300;BME280;10809;49.476;11.016;2023-02-04T08:55:35;99994.78;;;3.57;69.07
21300;BME280;10809;49.476;11.016;2023-02-04T08:58:05;99993.88;;;3.56;69.32
21300;BME280;10809;49.476;11.016;2023-02-04T09:00:35;99997.38;;;3.57;68.93
21300;BME280;10809;49.476;11.016;2023-02-04T09:03:06;100007.88;;;3.57;68.99
21300;BME280;10809;49.476;11.016;2023-02-04T09:05:37;100013.97;;;3.56;69.02
21300;BME280;10809;49.476;11.016;2023-02-04T09:08:07;100021.84;;;3.56;68.93
21300;BME280;10809;49.476;11.016;2023-02-04T09:10:40;100030.53;;;3.55;69.04
21300;BME280;10809;49.476;11.016;2023-02-04T09:13:11;100029.69;;;3.54;69.19
21300;BME280;10809;49.476;11.016;2023-02-04T09:15:43;100032.31;;;3.57;69.33
21300;BME280;10809;49.476;11.016;2023-02-04T09:18:14;100031.44;;;3.60;69.29
21300;BME280;10809;49.476;11.016;2023-02-04T09:20:48;100035.78;;;3.62;68.94
21300;BME280;10809;49.476;11.016;2023-02-04T09:23:18;100040.16;;;3.65;68.80
21300;BME280;10809;49.476;11.016;2023-02-04T09:25:49;100038.41;;;3.67;68.54
21300;BME280;10809;49.476;11.016;2023-02-04T09:28:20;100041.06;;;3.68;68.35
21300;BME280;10809;49.476;11.016;2023-02-04T09:30:50;100043.66;;;3.70;68.88
21300;BME280;10809;49.476;11.016;2023-02-04T09:33:24;100048.91;;;3.71;68.33
21300;BME280;10809;49.476;11.016;2023-02-04T09:35:54;100048.91;;;3.71;68.61
21300;BME280;10809;49.476;11.016;2023-02-04T09:38:24;100047.13;;;3.73;68.59
21300;BME280;10809;49.476;11.016;2023-02-04T09:41:04;100057.59;;;3.76;68.32
21300;BME280;10809;49.476;11.016;2023-02-04T09:43:41;100060.22;;;3.78;68.66
21300;BME280;10809;49.476;11.016;2023-02-04T09:46:23;100068.09;;;3.78;68.24
21300;BME280;10809;49.476;11.016;2023-02-04T09:48:58;100080.34;;;3.80;68.68
21300;BME280;10809;49.476;11.016;2023-02-04T09:51:32;100084.69;;;3.84;69.19
21300;BME280;10809;49.476;11.016;2023-02-04T09:54:14;100091.66;;;3.88;68.94
21300;BME280;10809;49.476;11.016;2023-02-04T09:56:45;100093.44;;;3.92;68.46
21300;BME280;10809;49.476;11.016;2023-02-04T09:59:17;100096.06;;;3.95;68.25
21300;BME280;10809;49.476;11.016;2023-02-04T10:01:57;100096.03;;;3.97;67.95
21300;BME280;10809;49.476;11.016;2023-02-04T10:04:29;100095.16;;;3.98;67.55
21300;BME280;10809;49.476;11.016;2023-02-04T10:07:00;100103.91;;;3.97;67.20
21300;BME280;10809;49.476;11.016;2023-02-04T10:09:30;100097.78;;;3.93;66.80
21300;BME280;10809;49.476;11.016;2023-02-04T10:12:00;100100.41;;;3.89;66.45
21300;BME280;10809;49.476;11.016;2023-02-04T10:14:31;100104.75;;;3.82;66.56
21300;BME280;10809;49.476;11.016;2023-02-04T10:17:02;100103.03;;;3.77;66.71
21300;BME280;10809;49.476;11.016;2023-02-04T10:19:34;100109.16;;;3.71;66.83
21300;BME280;10809;49.476;11.016;2023-02-04T10:22:16;100114.34;;;3.67;66.33
21300;BME280;10809;49.476;11.016;2023-02-04T10:24:49;100105.66;;;3.63;66.37
21300;BME280;10809;49.476;11.016;2023-02-04T10:27:20;100112.63;;;3.63;66.84
21300;BME280;10809;49.476;11.016;2023-02-04T10:29:58;100105.66;;;3.63;66.84
21300;BME280;10809;49.476;11.016;2023-02-04T10:32:32;100098.63;;;3.65;66.99
21300;BME280;10809;49.476;11.016;2023-02-04T10:35:04;100106.53;;;3.68;66.44
21300;BME280;10809;49.476;11.016;2023-02-04T10:37:35;100103.91;;;3.70;66.64
21300;BME280;10809;49.476;11.016;2023-02-04T10:40:30;100103.91;;;3.71;66.83
21300;BME280;10809;49.476;11.016;2023-02-04T10:43:12;100108.28;;;3.74;66.73
21300;BME280;10809;49.476;11.016;2023-02-04T10:45:57;100096.91;;;3.75;66.53
21300;BME280;10809;49.476;11.016;2023-02-04T10:48:41;100101.28;;;3.77;66.88
21300;BME280;10809;49.476;11.016;2023-02-04T10:51:14;100099.53;;;3.79;65.88
21300;BME280;10809;49.476;11.016;2023-02-04T10:53:46;100102.16;;;3.79;65.13
21300;BME280;10809;49.476;11.016;2023-02-04T10:56:37;100103.03;;;3.77;64.93
21300;BME280;10809;49.476;11.016;2023-02-04T10:59:23;100096.06;;;3.71;64.90
21300;BME280;10809;49.476;11.016;2023-02-04T11:02:10;100102.16;;;3.67;64.96
21300;BME280;10809;49.476;11.016;2023-02-04T11:04:46;100103.88;;;3.62;64.54
21300;BME280;10809;49.476;11.016;2023-02-04T11:07:19;100108.25;;;3.57;64.83
21300;BME280;10809;49.476;11.016;2023-02-04T11:09:50;100113.50;;;3.56;65.17
21300;BME280;10809;49.476;11.016;2023-02-04T11:12:36;100109.09;;;3.56;66.00
21300;BME280;10809;49.476;11.016;2023-02-04T11:15:39;100105.66;;;3.63;65.85
21300;BME280;10809;49.476;11.016;2023-02-04T11:18:42;100110.00;;;3.76;66.63
21300;BME280;10809;49.476;11.016;2023-02-04T11:32:11;100096.75;;;4.73;66.44
21300;BME280;10809;49.476;11.016;2023-02-04T11:35:16;100097.56;;;4.88;66.41
21300;BME280;10809;49.476;11.016;2023-02-04T11:37:49;100105.41;;;4.99;65.74
21300;BME280;10809;49.476;11.016;2023-02-04T11:40:30;100102.72;;;5.06;65.45
21300;BME280;10809;49.476;11.016;2023-02-04T11:43:08;100107.06;;;5.10;65.02
21300;BME280;10809;49.476;11.016;2023-02-04T11:45:40;100107.97;;;5.11;64.54
21300;BME280;10809;49.476;11.016;2023-02-04T11:48:14;100110.59;;;5.09;64.10
21300;BME280;10809;49.476;11.016;2023-02-04T11:50:58;100112.34;;;5.09;64.29
21300;BME280;10809;49.476;11.016;2023-02-04T11:53:31;100114.97;;;5.07;63.74
21300;BME280;10809;49.476;11.016;2023-02-04T11:56:03;100102.75;;;5.03;63.54
21300;BME280;10809;49.476;11.016;2023-02-04T11:58:38;100107.13;;;5.00;63.28
21300;BME280;10809;49.476;11.016;2023-02-04T12:01:23;100108.03;;;4.97;63.39
21300;BME280;10809;49.476;11.016;2023-02-04T12:04:00;100107.16;;;4.95;63.30
21300;BME280;10809;49.476;11.016;2023-02-04T12:06:35;100109.78;;;4.94;62.99
21300;BME280;10809;49.476;11.016;2023-02-04T12:09:23;100117.66;;;4.92;63.45
21300;BME280;10809;49.476;11.016;2023-02-04T12:11:59;100114.16;;;4.89;62.95
21300;BME280;10809;49.476;11.016;2023-02-04T12:14:33;100121.22;;;4.82;61.97
21300;BME280;10809;49.476;11.016;2023-02-04T12:17:17;100124.72;;;4.74;62.83
21300;BME280;10809;49.476;11.016;2023-02-04T12:19:48;100130.00;;;4.68;62.79
21300;BME280;10809;49.476;11.016;2023-02-04T12:22:22;100125.66;;;4.61;62.54
21300;BME280;10809;49.476;11.016;2023-02-04T12:24:56;100131.78;;;4.54;63.17
21300;BME280;10809;49.476;11.016;2023-02-04T12:27:29;100138.81;;;4.49;62.63
21300;BME280;10809;49.476;11.016;2023-02-04T12:30:01;100137.03;;;4.45;62.94
21300;BME280;10809;49.476;11.016;2023-02-04T12:32:32;100145.81;;;4.41;63.14
21300;BME280;10809;49.476;11.016;2023-02-04T12:35:03;100140.56;;;4.38;63.59
21300;BME280;10809;49.476;11.016;2023-02-04T12:37:37;100142.28;;;4.37;63.29
21300;BME280;10809;49.476;11.016;2023-02-04T12:40:14;100137.06;;;4.36;63.51
21300;BME280;10809;49.476;11.016;2023-02-04T12:42:46;100140.56;;;4.35;63.59
21300;BME280;10809;49.476;11.016;2023-02-04T12:45:18;100140.56;;;4.35;63.48
21300;BME280;10809;49.476;11.016;2023-02-04T12:47:49;100145.81;;;4.36;63.78
21300;BME280;10809;49.476;11.016;2023-02-04T12:50:20;100134.44;;;4.39;63.59
21300;BME280;10809;49.476;11.016;2023-02-04T12:52:57;100151.03;;;4.44;63.79
21300;BME280;10809;49.476;11.016;2023-02-04T12:55:28;100152.75;;;4.48;63.44
21300;BME280;10809;49.476;11.016;2023-02-04T12:57:59;100150.13;;;4.52;63.37
21300;BME280;10809;49.476;11.016;2023-02-04T13:00:30;100149.28;;;4.55;63.15
21300;BME280;10809;49.476;11.016;2023-02-04T13:03:01;100151.91;;;4.58;62.79
21300;BME280;10809;49.476;11.016;2023-02-04T13:05:31;100158.88;;;4.60;62.90
21300;BME280;10809;49.476;11.016;2023-02-04T13:08:03;100159.75;;;4.62;63.29
21300;BME280;10809;49.476;11.016;2023-02-04T13:10:34;100148.38;;;4.65;63.31
21300;BME280;10809;49.476;11.016;2023-02-04T13:13:05;100146.63;;;4.68;62.94
21300;BME280;10809;49.476;11.016;2023-02-04T13:15:36;100146.63;;;4.70;63.09
21300;BME280;10809;49.476;11.016;2023-02-04T13:18:06;100150.13;;;4.73;63.00
21300;BME280;10809;49.476;11.016;2023-02-04T13:20:38;100146.59;;;4.77;63.14
21300;BME280;10809;49.476;11.016;2023-02-04T13:23:09;100148.31;;;4.81;62.96
21300;BME280;10809;49.476;11.016;2023-02-04T13:25:40;100157.94;;;4.87;63.04
21300;BME280;10809;49.476;11.016;2023-02-04T13:28:11;100151.78;;;4.92;63.03
21300;BME280;10809;49.476;11.016;2023-02-04T13:30:41;100157.91;;;4.96;62.56
21300;BME280;10809;49.476;11.016;2023-02-04T13:33:13;100159.63;;;5.00;62.18
21300;BME280;10809;49.476;11.016;2023-02-04T13:35:44;100157.00;;;5.01;61.79
21300;BME280;10809;49.476;11.016;2023-02-04T13:38:14;100154.38;;;5.03;61.81